Time;durP1;ratioP1;P1;durP2;ratioP2;P2;SDS_P1;SDS_P2;PMS_P1;PMS_P2;Temp;Humidity;BMP_temperature;BMP_pressure;BME280_temperature;BME280_humidity;BME280_pressure;Samples;Min_cycle;Max_cycle;Signal;HPM_P1;HPM_P2
2024/03/10 00:01:23;;;;;;;;;31.50;22.50;;;;;2.15;65.36;100277.59;112383;244;40529;-50
2024/03/10 00:03:58;;;;;;;;;34.25;24.75;;;;;2.19;65.49;100279.73;112417;244;41415;-52
2024/03/10 00:06:38;;;;;;;;;29.50;23.00;;;;;2.22;65.56;100285.69;112239;242;161453;-51
2024/03/10 00:09:16;;;;;;;;;31.00;22.00;;;;;2.23;65.51;100285.70;112439;243;39170;-49
2024/03/10 00:11:58;;;;;;;;;34.25;24.50;;;;;2.24;65.65;100281.19;112258;242;160935;-49
2024/03/10 00:14:38;;;;;;;;;27.67;21.00;;;;;2.25;65.76;100279.48;112460;244;38976;-53
2024/03/10 00:17:16;;;;;;;;;31.67;21.33;;;;;2.29;65.78;100279.52;112294;242;160587;-52
2024/03/10 00:19:53;;;;;;;;;28.50;19.75;;;;;2.28;65.79;100279.23;112483;244;40183;-49
2024/03/10 00:22:30;;;;;;;;;33.00;24.00;;;;;2.27;66.05;100282.00;112423;242;162167;-49
2024/03/10 00:25:07;;;;;;;;;26.50;20.75;;;;;2.28;66.15;100285.13;112447;244;39536;-52
2024/03/10 00:27:45;;;;;;;;;27.67;20.00;;;;;2.24;66.06;100287.89;112516;244;41035;-50
2024/03/10 00:30:23;;;;;;;;;23.00;16.33;;;;;2.19;66.12;100285.34;112300;242;160905;-48
2024/03/10 00:33:01;;;;;;;;;22.75;16.00;;;;;2.19;66.46;100284.19;112549;244;41194;-48
2024/03/10 00:35:43;;;;;;;;;25.00;18.00;;;;;2.15;66.29;100278.48;112359;242;160782;-50
2024/03/10 00:38:20;;;;;;;;;26.00;21.00;;;;;2.12;66.38;100276.80;112515;244;39948;-51
2024/03/10 00:40:55;;;;;;;;;33.50;24.75;;;;;2.09;66.97;100266.55;112344;242;161371;-51
2024/03/10 00:43:33;;;;;;;;;34.00;24.25;;;;;2.10;66.89;100267.77;112447;244;39673;-52
2024/03/10 00:46:13;;;;;;;;;26.00;20.00;;;;;2.06;66.82;100267.38;112554;244;40963;-53
2024/03/10 00:48:53;;;;;;;;;22.67;17.00;;;;;2.03;66.80;100264.67;112432;245;40266;-50
2024/03/10 00:51:35;;;;;;;;;24.00;19.25;;;;;1.99;66.95;100266.60;112429;244;39933;-50
2024/03/10 00:54:15;;;;;;;;;25.67;20.00;;;;;1.96;67.24;100266.41;112399;241;160771;-52
2024/03/10 00:56:53;;;;;;;;;31.00;21.00;;;;;1.92;67.11;100261.38;112796;243;41055;-52
2024/03/10 00:59:30;;;;;;;;;32.33;22.67;;;;;1.88;67.21;100266.23;112508;242;160507;-50
2024/03/10 01:02:20;;;;;;;;;21.00;15.50;;;;;1.87;67.26;100267.34;112428;244;39215;-49
2024/03/10 01:04:56;;;;;;;;;27.67;19.00;;;;;1.83;67.28;100264.41;112247;242;162142;-53
2024/03/10 01:07:39;;;;;;;;;32.25;22.00;;;;;1.80;67.56;100265.33;112379;244;39930;-53
2024/03/10 01:10:14;;;;;;;;;23.75;17.75;;;;;1.81;67.68;100265.81;112445;244;40477;-51
2024/03/10 01:12:51;;;;;;;;;32.00;22.50;;;;;1.77;67.68;100264.52;112432;242;39738;-52
2024/03/10 01:15:28;;;;;;;;;22.00;16.00;;;;;1.74;67.80;100262.64;112471;244;39269;-53
2024/03/10 01:18:06;;;;;;;;;37.25;22.75;;;;;1.72;67.83;100267.09;112247;242;161612;-53
2024/03/10 01:20:45;;;;;;;;;37.67;26.00;;;;;1.68;67.80;100264.08;112535;244;40760;-53
2024/03/10 01:23:27;;;;;;;;;29.00;22.00;;;;;1.67;67.91;100264.86;112372;242;161351;-50
2024/03/10 01:26:15;;;;;;;;;36.50;26.25;;;;;1.64;68.02;100268.29;112487;244;40492;-49
2024/03/10 01:28:58;;;;;;;;;51.50;34.50;;;;;1.62;68.03;100270.98;112332;242;161644;-51
2024/03/10 01:31:36;;;;;;;;;64.75;41.75;;;;;1.61;68.01;100270.94;112391;244;39268;-51
2024/03/10 01:34:19;;;;;;;;;61.75;41.25;;;;;1.50;68.13;100272.47;112450;244;41281;-49
2024/03/10 01:36:58;;;;;;;;;59.25;40.25;;;;;1.35;68.27;100271.15;112455;243;39306;-50
2024/03/10 01:39:34;;;;;;;;;61.00;39.25;;;;;1.13;68.48;100265.23;112792;243;39979;-50
2024/03/10 01:42:13;;;;;;;;;45.00;32.33;;;;;0.99;68.46;100264.14;112355;242;161494;-50
2024/03/10 01:44:48;;;;;;;;;34.25;24.75;;;;;0.81;68.88;100260.27;112813;243;40947;-50
2024/03/10 01:47:27;;;;;;;;;36.00;25.67;;;;;0.63;69.09;100267.48;112498;242;160813;-50
2024/03/10 01:50:06;;;;;;;;;36.00;24.75;;;;;0.46;69.38;100267.83;112689;243;39605;-53
2024/03/10 01:52:47;;;;;;;;;35.75;25.75;;;;;0.29;69.74;100269.43;112653;243;160950;-50
2024/03/10 01:55:24;;;;;;;;;32.00;20.00;;;;;0.14;69.90;100267.86;112658;243;39089;-49
2024/03/10 01:58:00;;;;;;;;;30.00;20.75;;;;;0.02;70.09;100270.64;112845;243;41696;-50
2024/03/10 02:00:45;;;;;;;;;31.50;23.00;;;;;-0.13;70.45;100271.55;112448;242;162743;-49
2024/03/10 02:03:21;;;;;;;;;28.00;20.50;;;;;-0.26;70.68;100268.69;112889;243;39458;-48
2024/03/10 02:06:00;;;;;;;;;26.00;21.00;;;;;-0.36;70.96;100270.42;112464;243;162256;-49
2024/03/10 02:08:36;;;;;;;;;30.67;22.00;;;;;-0.42;71.22;100274.30;112442;244;40303;-49
2024/03/10 02:11:14;;;;;;;;;21.33;17.00;;;;;-0.47;71.52;100273.59;112295;242;161726;-49
2024/03/10 02:13:52;;;;;;;;;26.00;20.00;;;;;-0.52;71.72;100273.88;112444;244;40213;-50
2024/03/10 02:16:29;;;;;;;;;27.00;20.00;;;;;-0.57;72.12;100277.08;112308;241;161165;-49
2024/03/10 02:19:08;;;;;;;;;29.75;21.00;;;;;-0.62;72.27;100278.10;112591;243;40310;-51
2024/03/10 02:21:47;;;;;;;;;29.50;20.00;;;;;-0.60;72.56;100276.58;112767;243;40645;-52
2024/03/10 02:24:35;;;;;;;;;27.25;18.00;;;;;-0.58;72.73;100276.77;112361;240;161809;-49
2024/03/10 02:27:15;;;;;;;;;22.75;16.25;;;;;-0.65;72.99;100274.32;112808;243;39449;-49
2024/03/10 02:30:18;;;;;;;;;21.00;14.00;;;;;-0.73;73.28;100269.86;112488;240;160732;-49
2024/03/10 02:47:22;;;;;;;;;25.00;18.00;;;;;-0.67;74.16;100270.39;112563;241;161576;-49
2024/03/10 02:50:05;;;;;;;;;34.00;25.00;;;;;-0.58;74.40;100271.14;112720;243;41186;-52
2024/03/10 02:52:46;;;;;;;;;33.50;25.00;;;;;-0.47;74.34;100269.92;112666;241;162385;-52
2024/03/10 02:55:26;;;;;;;;;29.50;21.00;;;;;-0.44;74.47;100265.55;112526;243;40263;-53
2024/03/10 02:58:05;;;;;;;;;23.33;15.00;;;;;-0.37;74.56;100262.52;112460;243;39450;-50
2024/03/10 03:00:41;;;;;;;;;34.00;22.00;;;;;-0.25;74.64;100257.69;112364;242;161168;-49
2024/03/10 03:03:19;;;;;;;;;30.00;21.00;;;;;-0.13;74.69;100259.27;112856;243;40967;-54
2024/03/10 03:06:01;;;;;;;;;24.00;18.00;;;;;-0.03;74.63;100261.35;112408;240;161169;-52
2024/03/10 03:08:36;;;;;;;;;28.00;20.00;;;;;-0.00;74.61;100261.80;112760;243;40283;-49
2024/03/10 03:11:16;;;;;;;;;20.50;15.25;;;;;0.02;74.51;100261.08;112527;241;160807;-50
2024/03/10 03:13:57;;;;;;;;;20.67;14.33;;;;;0.04;74.57;100260.73;112620;243;40922;-49
2024/03/10 03:16:39;;;;;;;;;18.00;14.50;;;;;0.08;74.68;100256.36;112639;240;161487;-49
2024/03/10 03:19:17;;;;;;;;;20.25;13.00;;;;;0.10;74.69;100257.73;112531;243;39175;-52
2024/03/10 03:21:56;;;;;;;;;22.00;16.75;;;;;0.13;74.72;100257.19;112799;243;39302;-52
2024/03/10 03:24:38;;;;;;;;;23.00;16.00;;;;;0.11;74.55;100259.95;112347;243;160706;-51
2024/03/10 03:27:23;;;;;;;;;20.75;16.00;;;;;0.15;74.63;100261.05;112805;243;39940;-53
2024/03/10 03:30:03;;;;;;;;;20.75;14.50;;;;;0.14;74.61;100260.59;112470;241;160585;-52
2024/03/10 03:32:43;;;;;;;;;24.50;18.00;;;;;0.15;74.70;100254.52;112761;243;39889;-50
2024/03/10 03:35:25;;;;;;;;;23.75;18.00;;;;;0.17;74.76;100254.54;112597;241;160736;-51
2024/03/10 03:38:06;;;;;;;;;15.00;12.00;;;;;0.19;74.91;100257.70;112743;243;40686;-50
2024/03/10 03:40:49;;;;;;;;;19.50;12.50;;;;;0.26;75.06;100259.98;112654;241;161249;-51
2024/03/10 03:43:29;;;;;;;;;26.00;17.00;;;;;0.38;75.45;100256.86;112596;243;38907;-51
2024/03/10 03:46:07;;;;;;;;;27.00;21.00;;;;;0.40;75.17;100255.77;112816;243;39472;-51
2024/03/10 03:48:43;;;;;;;;;28.00;21.00;;;;;0.41;75.00;100254.56;112330;242;161480;-49
2024/03/10 03:51:17;;;;;;;;;30.00;23.33;;;;;0.44;75.07;100253.50;112515;244;39682;-48
2024/03/10 03:54:05;;;;;;;;;27.25;22.00;;;;;0.47;75.10;100247.48;112371;242;161684;-52
2024/03/10 03:56:43;;;;;;;;;35.00;25.00;;;;;0.54;75.14;100246.20;112528;244;39166;-51
2024/03/10 03:59:29;;;;;;;;;33.00;23.00;;;;;0.64;75.35;100242.69;112353;241;161976;-48
2024/03/10 04:02:15;;;;;;;;;29.00;20.00;;;;;0.71;75.09;100243.59;112653;243;41032;-49
2024/03/10 04:04:51;;;;;;;;;27.50;21.00;;;;;0.78;75.08;100239.07;112603;241;161281;-51
2024/03/10 04:07:28;;;;;;;;;24.33;17.33;;;;;0.83;75.03;100234.69;112503;244;39646;-51
2024/03/10 04:10:10;;;;;;;;;26.25;18.50;;;;;0.84;74.95;100236.19;112813;243;39608;-50
2024/03/10 04:12:49;;;;;;;;;26.00;20.25;;;;;0.88;75.00;100234.27;112332;241;160740;-50
2024/03/10 04:15:51;;;;;;;;;29.50;20.50;;;;;0.87;74.83;100235.29;112778;243;40068;-50
2024/03/10 04:18:31;;;;;;;;;27.00;18.33;;;;;0.84;74.76;100230.56;112346;241;160841;-52
2024/03/10 04:21:08;;;;;;;;;30.00;22.00;;;;;0.81;74.73;100228.36;112817;243;41138;-52
2024/03/10 04:23:52;;;;;;;;;26.33;19.00;;;;;0.77;74.68;100225.17;112473;241;160804;-52
2024/03/10 04:26:29;;;;;;;;;33.25;23.00;;;;;0.71;74.68;100224.39;112784;243;39330;-53
2024/03/10 04:29:12;;;;;;;;;31.50;21.50;;;;;0.67;74.73;100229.38;112589;241;160904;-50
2024/03/10 04:31:52;;;;;;;;;31.00;21.50;;;;;0.64;74.72;100229.13;112667;243;39216;-50
2024/03/10 04:34:32;;;;;;;;;27.00;20.00;;;;;0.58;74.79;100225.12;112817;241;160826;-51
2024/03/10 04:37:17;;;;;;;;;24.75;17.00;;;;;0.55;74.81;100221.71;112483;243;40043;-51
2024/03/10 04:39:58;;;;;;;;;29.75;17.50;;;;;0.51;74.80;100219.60;112843;243;39971;-52
2024/03/10 04:42:48;;;;;;;;;18.67;14.33;;;;;0.45;74.82;100219.87;112258;242;160794;-52
2024/03/10 04:45:36;;;;;;;;;24.00;16.00;;;;;0.44;74.83;100221.80;112828;243;39106;-49
2024/03/10 04:48:12;;;;;;;;;35.25;27.50;;;;;0.45;74.93;100219.72;112523;241;161236;-51
2024/03/10 04:50:49;;;;;;;;;32.50;25.50;;;;;0.47;75.17;100224.47;112803;243;40795;-52
2024/03/10 04:53:32;;;;;;;;;29.50;22.00;;;;;0.51;75.28;100220.61;112568;241;161615;-49
2024/03/10 04:56:09;;;;;;;;;34.75;25.25;;;;;0.58;75.08;100218.74;112691;243;40099;-50
2024/03/10 04:58:49;;;;;;;;;34.00;24.00;;;;;0.68;75.17;100213.52;112660;241;161660;-49
2024/03/10 05:01:29;;;;;;;;;28.00;21.25;;;;;0.76;75.11;100218.72;112505;243;40530;-49
2024/03/10 05:04:09;;;;;;;;;22.00;19.00;;;;;0.83;75.29;100217.14;112816;243;39606;-49
2024/03/10 05:06:49;;;;;;;;;30.50;22.75;;;;;0.92;75.21;100219.58;112335;241;160629;-49
2024/03/10 05:09:33;;;;;;;;;37.75;26.00;;;;;0.97;75.14;100219.89;112820;243;39487;-52
2024/03/10 05:12:12;;;;;;;;;21.50;18.00;;;;;1.00;75.06;100221.36;112392;241;160481;-53
2024/03/10 05:14:50;;;;;;;;;28.50;20.50;;;;;1.05;74.88;100222.30;112885;243;40937;-52
2024/03/10 05:17:33;;;;;;;;;28.00;20.00;;;;;1.08;74.90;100223.33;112565;241;161922;-53
2024/03/10 05:20:15;;;;;;;;;31.50;22.75;;;;;1.10;74.77;100230.39;112780;243;39818;-49
2024/03/10 05:22:57;;;;;;;;;35.00;25.00;;;;;1.14;74.81;100224.70;112324;242;161060;-52
2024/03/10 05:25:42;;;;;;;;;22.50;16.00;;;;;1.17;74.80;100222.10;112615;243;40954;-53
2024/03/10 05:28:21;;;;;;;;;32.75;23.00;;;;;1.24;74.50;100226.84;112849;243;39777;-51
2024/03/10 05:31:01;;;;;;;;;37.25;28.00;;;;;1.29;74.51;100225.35;112491;243;39276;-51
2024/03/10 05:33:39;;;;;;;;;34.67;25.00;;;;;1.34;74.60;100225.64;112819;243;39028;-49
2024/03/10 05:36:19;;;;;;;;;32.00;24.00;;;;;1.41;74.44;100220.90;112374;242;162506;-48
2024/03/10 05:38:59;;;;;;;;;38.50;28.00;;;;;1.53;74.33;100223.92;112481;244;39742;-49
2024/03/10 05:41:40;;;;;;;;;38.00;29.00;;;;;1.63;74.20;100223.04;112294;242;161321;-49
2024/03/10 05:44:22;;;;;;;;;33.25;25.00;;;;;1.69;74.05;100225.29;112436;244;39721;-51
2024/03/10 05:47:06;;;;;;;;;42.67;31.33;;;;;1.74;73.89;100228.21;112320;241;161107;-52
2024/03/10 05:49:41;;;;;;;;;34.00;23.00;;;;;1.77;73.92;100233.30;112622;243;39945;-49
2024/03/10 05:52:24;;;;;;;;;33.25;23.25;;;;;1.87;73.69;100235.77;112795;243;39640;-49
2024/03/10 05:55:07;;;;;;;;;32.00;23.75;;;;;1.99;73.65;100245.13;112488;243;39585;-49
2024/03/10 05:57:46;;;;;;;;;33.00;24.00;;;;;2.12;73.35;100245.91;112830;243;40284;-51
2024/03/10 06:00:23;;;;;;;;;26.50;21.50;;;;;2.15;73.11;100239.74;112387;241;162056;-51
2024/03/10 06:03:03;;;;;;;;;35.50;26.00;;;;;2.17;73.05;100242.09;112836;243;39532;-49
2024/03/10 06:05:42;;;;;;;;;34.25;26.00;;;;;2.16;73.01;100240.73;112381;241;160918;-49
2024/03/10 06:08:24;;;;;;;;;32.00;22.00;;;;;2.23;72.87;100237.97;112854;243;39181;-49
2024/03/10 06:11:12;;;;;;;;;36.75;26.25;;;;;2.35;72.65;100239.30;112571;243;161146;-49
2024/03/10 06:14:00;;;;;;;;;36.25;26.00;;;;;2.46;72.51;100241.89;112511;243;39583;-52
2024/03/10 06:16:43;;;;;;;;;31.75;23.25;;;;;2.58;72.49;100240.57;112658;241;161530;-51
2024/03/10 06:25:27;;;;;;;;;36.75;26.00;;;;;3.11;71.76;100228.54;112788;243;41073;-48
2024/03/10 06:28:08;;;;;;;;;36.00;26.00;;;;;3.49;71.43;100227.71;112770;243;39628;-51
2024/03/10 06:30:44;;;;;;;;;42.75;30.75;;;;;3.82;71.17;100223.92;112367;241;160894;-51
2024/03/10 06:33:26;;;;;;;;;43.25;33.00;;;;;4.14;70.86;100228.55;112781;243;39821;-52
2024/03/10 06:36:09;;;;;;;;;44.00;32.00;;;;;4.52;70.09;100223.47;112422;242;160763;-53
2024/03/10 06:38:56;;;;;;;;;40.50;28.00;;;;;4.72;69.37;100223.49;111971;244;566959;-49
2024/03/10 06:41:35;;;;;;;;;42.50;30.50;;;;;4.70;69.14;100225.20;112270;242;161112;-49
2024/03/10 06:44:12;;;;;;;;;41.67;31.33;;;;;4.64;68.72;100227.15;112430;244;39523;-49
2024/03/10 06:46:48;;;;;;;;;41.33;28.33;;;;;4.74;68.77;100225.29;112361;241;161706;-49
2024/03/10 06:49:34;;;;;;;;;42.50;30.50;;;;;4.84;68.26;100222.98;112417;244;39763;-53
2024/03/10 06:52:10;;;;;;;;;37.33;26.33;;;;;4.96;68.35;100221.98;112462;244;40529;-52
2024/03/10 06:54:45;;;;;;;;;43.00;31.00;;;;;5.20;68.28;100223.17;112340;240;160792;-50
2024/03/10 06:57:21;;;;;;;;;36.75;26.25;;;;;5.49;67.89;100228.70;112865;243;41295;-50
2024/03/10 07:00:01;;;;;;;;;45.50;34.00;;;;;5.76;67.74;100224.52;112478;242;160986;-53
2024/03/10 07:02:47;;;;;;;;;42.00;30.75;;;;;6.17;66.77;100226.55;112461;244;40739;-50
2024/03/10 07:05:24;;;;;;;;;41.00;31.75;;;;;6.87;66.42;100224.34;112268;242;161068;-50
2024/03/10 07:08:07;;;;;;;;;41.00;30.25;;;;;7.39;65.55;100226.48;112400;244;38978;-51
2024/03/10 07:10:46;;;;;;;;;38.75;29.00;;;;;7.30;64.70;100228.39;112276;240;161756;-52
2024/03/10 07:13:23;;;;;;;;;41.00;31.00;;;;;7.27;64.40;100229.16;112529;243;40599;-50
2024/03/10 07:15:57;;;;;;;;;45.25;32.75;;;;;7.56;63.50;100234.27;112792;243;40490;-49
2024/03/10 07:18:35;;;;;;;;;46.75;31.25;;;;;7.45;63.74;100231.77;112354;242;160999;-52
2024/03/10 07:21:17;;;;;;;;;49.00;33.25;;;;;7.76;63.57;100234.63;112384;244;39800;-53
2024/03/10 07:23:53;;;;;;;;;40.50;31.00;;;;;7.88;62.64;100239.27;112267;241;160774;-52
2024/03/10 07:26:34;;;;;;;;;41.75;31.00;;;;;8.10;62.44;100236.98;112416;244;40253;-52
2024/03/10 07:29:15;;;;;;;;;44.00;33.00;;;;;8.43;61.22;100236.71;112353;241;161657;-52
2024/03/10 07:31:52;;;;;;;;;39.00;30.00;;;;;8.66;60.97;100237.48;112603;243;39773;-52
2024/03/10 07:34:34;;;;;;;;;43.25;32.25;;;;;8.80;60.59;100231.66;112871;243;40549;-50
2024/03/10 07:37:13;;;;;;;;;48.00;36.00;;;;;8.94;60.05;100228.64;112403;244;39393;-50
2024/03/10 07:39:52;;;;;;;;;42.00;29.50;;;;;9.05;59.66;100224.42;112605;244;39057;-53
2024/03/10 07:42:30;;;;;;;;;46.50;33.25;;;;;9.60;59.65;100223.91;112287;241;161119;-50
2024/03/10 07:45:10;;;;;;;;;46.00;34.00;;;;;9.49;58.24;100228.52;112450;244;40352;-50
2024/03/10 07:47:50;;;;;;;;;37.00;30.00;;;;;9.34;58.31;100229.10;112422;242;161301;-51
2024/03/10 07:50:28;;;;;;;;;34.75;25.50;;;;;9.47;58.11;100223.19;112530;244;39772;-52
2024/03/10 07:53:06;;;;;;;;;41.75;32.00;;;;;9.94;57.66;100224.52;112448;242;161285;-53
2024/03/10 07:55:44;;;;;;;;;37.00;29.00;;;;;10.80;57.71;100223.17;112466;244;40525;-53
2024/03/10 07:58:29;;;;;;;;;34.50;26.50;;;;;12.18;57.37;100220.98;112583;244;39781;-53
2024/03/10 08:01:06;;;;;;;;;40.75;32.50;;;;;13.96;54.35;100221.61;112407;244;40041;-54
2024/03/10 08:03:41;;;;;;;;;51.50;37.75;;;;;14.46;53.81;100221.36;112585;244;39797;-53
2024/03/10 08:06:27;;;;;;;;;48.00;36.00;;;;;15.84;51.55;100219.08;112265;241;161446;-52
2024/03/10 08:09:04;;;;;;;;;52.75;40.25;;;;;17.37;50.41;100220.17;112515;244;39825;-50
2024/03/10 08:11:45;;;;;;;;;47.00;35.75;;;;;18.21;45.13;100217.54;112319;241;161478;-50
2024/03/10 08:14:22;;;;;;;;;44.25;34.50;;;;;19.11;44.47;100216.88;112682;243;41017;-54
2024/03/10 08:16:59;;;;;;;;;45.25;35.00;;;;;19.54;42.92;100217.64;112603;241;162260;-53
2024/03/10 08:19:43;;;;;;;;;39.00;31.00;;;;;19.50;41.70;100218.77;112526;243;41075;-53
2024/03/10 08:22:20;;;;;;;;;34.50;28.25;;;;;18.11;41.30;100218.02;112772;243;39259;-54
2024/03/10 08:24:56;;;;;;;;;44.33;33.00;;;;;16.21;40.58;100223.55;112333;241;161177;-50
2024/03/10 08:27:32;;;;;;;;;44.50;31.00;;;;;14.91;42.10;100218.33;112815;243;40704;-51
2024/03/10 08:30:11;;;;;;;;;44.00;34.00;;;;;13.85;42.62;100217.39;112446;243;161578;-50
2024/03/10 08:32:52;;;;;;;;;40.50;30.00;;;;;12.66;44.18;100225.58;112792;243;39697;-53
2024/03/10 08:35:32;;;;;;;;;37.50;28.50;;;;;11.99;44.72;100220.90;112624;241;162380;-54
2024/03/10 08:38:10;;;;;;;;;31.75;24.50;;;;;11.71;45.81;100220.58;112659;243;39561;-53
2024/03/10 08:40:47;;;;;;;;;36.33;28.67;;;;;11.87;46.11;100215.02;112692;243;162537;-52
2024/03/10 08:43:28;;;;;;;;;29.50;22.50;;;;;12.24;45.96;100215.02;112563;243;39310;-51
2024/03/10 08:46:03;;;;;;;;;34.00;26.33;;;;;12.47;46.33;100218.66;112779;243;39202;-52
2024/03/10 08:48:48;;;;;;;;;39.00;31.00;;;;;13.47;46.63;100207.10;112348;241;161366;-53
2024/03/10 08:51:29;;;;;;;;;34.25;26.25;;;;;14.99;45.71;100201.29;112800;243;39316;-52
2024/03/10 08:54:09;;;;;;;;;41.00;32.00;;;;;16.05;42.94;100199.48;112431;241;161541;-50
2024/03/10 08:56:43;;;;;;;;;40.00;31.75;;;;;16.47;42.10;100192.31;112716;243;40430;-50
2024/03/10 08:59:24;;;;;;;;;54.00;41.00;;;;;16.71;41.24;100193.52;112585;243;161737;-50
2024/03/10 09:02:02;;;;;;;;;34.67;28.00;;;;;16.85;40.94;100192.61;112568;243;39171;-50
2024/03/10 09:04:39;;;;;;;;;33.25;27.75;;;;;16.85;40.44;100193.53;112789;243;39506;-49
2024/03/10 09:07:18;;;;;;;;;35.00;28.00;;;;;16.81;39.45;100184.95;112443;243;39085;-49
2024/03/10 09:10:04;;;;;;;;;30.00;24.00;;;;;16.14;40.23;100189.38;112850;243;41348;-50
2024/03/10 09:12:46;;;;;;;;;32.00;25.00;;;;;16.08;40.73;100188.66;112338;241;161422;-50
2024/03/10 09:15:23;;;;;;;;;34.00;26.75;;;;;16.10;39.98;100191.33;112833;243;39747;-50
2024/03/10 09:17:59;;;;;;;;;32.50;26.00;;;;;16.07;39.92;100191.61;112502;241;161446;-49
2024/03/10 09:20:39;;;;;;;;;29.00;24.00;;;;;16.22;39.07;100193.69;112789;243;39870;-50
2024/03/10 09:23:14;;;;;;;;;27.50;23.00;;;;;16.09;38.44;100190.98;112647;241;161325;-52
2024/03/10 09:25:49;;;;;;;;;34.00;26.00;;;;;16.00;38.92;100186.24;112581;243;39875;-52
2024/03/10 09:28:27;;;;;;;;;25.00;21.00;;;;;16.20;38.35;100179.41;112856;243;39236;-52
2024/03/10 09:31:05;;;;;;;;;30.00;24.00;;;;;16.32;38.31;100173.73;112356;241;161677;-52
2024/03/10 09:33:43;;;;;;;;;30.00;25.00;;;;;16.73;38.64;100176.09;112840;243;40823;-50
2024/03/10 09:36:24;;;;;;;;;24.50;19.50;;;;;16.89;38.61;100171.59;112359;241;161063;-50
2024/03/10 09:39:01;;;;;;;;;31.00;24.00;;;;;16.92;37.80;100168.60;112773;243;40313;-51
2024/03/10 09:41:42;;;;;;;;;26.00;20.25;;;;;16.99;37.23;100162.27;112497;241;161480;-50
2024/03/10 09:44:22;;;;;;;;;30.00;24.00;;;;;16.95;37.71;100169.44;112656;243;39491;-50
2024/03/10 09:47:00;;;;;;;;;30.00;25.00;;;;;17.07;37.30;100155.52;112623;241;161598;-50
2024/03/10 09:49:37;;;;;;;;;32.00;26.00;;;;;17.30;36.85;100148.68;112527;243;39243;-52
2024/03/10 09:52:19;;;;;;;;;27.75;21.25;;;;;17.28;36.40;100143.29;112820;243;40736;-54
2024/03/10 09:55:07;;;;;;;;;31.50;24.00;;;;;16.77;37.26;100147.11;112302;242;161161;-55
2024/03/10 09:57:48;;;;;;;;;23.00;18.00;;;;;16.01;37.58;100147.27;112831;243;40269;-54
2024/03/10 10:00:25;;;;;;;;;26.00;20.00;;;;;15.06;37.69;100151.23;112374;242;161551;-55
2024/03/10 10:03:07;;;;;;;;;26.33;22.33;;;;;14.13;38.83;100160.14;112478;244;39068;-52
2024/03/10 10:05:56;;;;;;;;;22.25;18.00;;;;;13.43;40.23;100152.65;112430;240;161361;-52
2024/03/10 10:08:34;;;;;;;;;18.50;15.00;;;;;13.24;40.93;100156.84;112517;244;40439;-52
2024/03/10 10:11:12;;;;;;;;;28.00;21.00;;;;;13.11;41.39;100148.20;112342;241;161971;-52
2024/03/10 10:14:06;;;;;;;;;26.00;19.75;;;;;12.99;41.78;100142.18;112622;243;40753;-52
2024/03/10 10:16:55;;;;;;;;;26.00;20.00;;;;;12.97;42.24;100148.98;112797;243;39617;-52
2024/03/10 10:19:32;;;;;;;;;17.00;15.00;;;;;12.96;42.41;100147.02;112584;243;39621;-55
2024/03/10 10:22:11;;;;;;;;;29.50;24.00;;;;;12.98;42.47;100151.73;112838;242;40093;-55
2024/03/10 10:25:12;;;;;;;;;26.00;21.00;;;;;12.87;42.65;100144.11;112331;240;161265;-51
2024/03/10 10:27:57;;;;;;;;;28.25;21.00;;;;;12.84;42.99;100141.28;112801;243;40737;-54
2024/03/10 10:30:37;;;;;;;;;23.25;18.00;;;;;12.88;43.19;100149.04;112349;240;161419;-54
2024/03/10 10:33:14;;;;;;;;;25.00;20.00;;;;;12.89;43.36;100138.69;112824;243;40879;-53
2024/03/10 10:35:49;;;;;;;;;28.00;23.00;;;;;13.22;43.74;100133.92;112526;243;161679;-53
2024/03/10 10:38:27;;;;;;;;;29.00;23.00;;;;;13.41;42.97;100135.76;112712;243;40650;-55
2024/03/10 10:41:05;;;;;;;;;29.00;23.75;;;;;13.42;43.14;100131.13;112688;243;161424;-55
2024/03/10 10:43:46;;;;;;;;;27.25;22.25;;;;;13.32;42.90;100132.86;112530;243;40707;-54
2024/03/10 10:46:25;;;;;;;;;22.50;18.50;;;;;13.26;42.71;100128.71;112827;243;39831;-54
2024/03/10 10:49:19;;;;;;;;;25.25;19.25;;;;;13.06;43.28;100127.37;112384;241;161606;-54
2024/03/10 10:51:57;;;;;;;;;27.75;22.00;;;;;12.90;43.20;100122.72;112800;243;40706;-52
2024/03/10 10:54:36;;;;;;;;;16.00;13.00;;;;;12.88;43.37;100128.31;112443;241;161281;-52
2024/03/10 10:57:10;;;;;;;;;17.33;14.00;;;;;12.79;43.36;100123.90;112778;243;41185;-52
2024/03/10 10:59:56;;;;;;;;;17.75;14.00;;;;;12.83;43.64;100123.05;112524;241;162192;-51
2024/03/10 11:02:31;;;;;;;;;26.50;20.25;;;;;12.91;43.41;100118.29;112675;243;39637;-51
2024/03/10 11:05:08;;;;;;;;;20.00;16.25;;;;;12.84;43.54;100115.71;112598;241;162971;-57
2024/03/10 11:07:47;;;;;;;;;19.00;15.00;;;;;12.77;43.48;100117.14;112534;243;39737;-54
2024/03/10 11:10:49;;;;;;;;;21.25;16.00;;;;;12.80;43.92;100111.21;112808;243;40451;-55
2024/03/10 11:13:27;;;;;;;;;21.50;17.00;;;;;12.85;43.98;100113.84;112506;243;39785;-54
2024/03/10 11:16:12;;;;;;;;;24.33;18.33;;;;;12.75;43.84;100113.77;112806;243;40132;-53
2024/03/10 11:19:11;;;;;;;;;27.00;21.50;;;;;12.71;44.03;100110.92;112397;241;161150;-51
2024/03/10 11:21:50;;;;;;;;;22.25;17.00;;;;;12.69;44.11;100106.27;112847;243;39944;-51
2024/03/10 11:24:32;;;;;;;;;25.00;19.00;;;;;12.68;44.37;100105.68;112504;241;161750;-52
2024/03/10 11:27:19;;;;;;;;;22.75;19.50;;;;;12.49;44.41;100104.18;112795;243;39482;-52
2024/03/10 11:29:56;;;;;;;;;23.00;18.00;;;;;12.35;44.58;100111.45;112574;241;161134;-51
2024/03/10 11:33:03;;;;;;;;;18.75;14.25;;;;;12.26;44.77;100111.89;112711;243;39762;-51
2024/03/10 11:35:42;;;;;;;;;18.00;13.25;;;;;12.16;45.05;100114.70;112324;242;161569;-55
2024/03/10 11:38:18;;;;;;;;;25.00;19.00;;;;;12.11;45.12;100105.05;112647;243;40835;-55
2024/03/10 11:41:09;;;;;;;;;23.00;17.00;;;;;12.11;45.10;100105.25;112681;241;161600;-53
2024/03/10 11:43:49;;;;;;;;;20.00;15.75;;;;;12.07;45.33;100098.70;112571;243;40170;-54
2024/03/10 11:46:26;;;;;;;;;24.00;18.00;;;;;12.10;45.40;100101.09;112807;243;40063;-55
2024/03/10 11:49:01;;;;;;;;;18.00;13.00;;;;;12.11;45.44;100096.17;112351;241;162360;-54
2024/03/10 11:51:43;;;;;;;;;17.25;13.00;;;;;12.15;45.64;100089.67;112819;243;40613;-55
2024/03/10 11:54:27;;;;;;;;;21.25;16.00;;;;;12.25;45.57;100081.02;112425;243;161455;-54
2024/03/10 11:57:11;;;;;;;;;17.33;15.00;;;;;12.37;45.69;100073.80;112656;243;39660;-59
2024/03/10 11:59:55;;;;;;;;;20.00;15.00;;;;;12.49;45.52;100071.23;112541;242;161834;-55
2024/03/10 12:02:32;;;;;;;;;15.50;13.00;;;;;12.56;45.61;100075.02;112439;244;39041;-55
2024/03/10 12:05:15;;;;;;;;;15.00;11.00;;;;;12.56;45.48;100064.17;112424;241;161810;-51
2024/03/10 12:08:00;;;;;;;;;25.00;19.00;;;;;12.61;45.40;100061.20;112553;243;40099;-52
2024/03/10 12:10:47;;;;;;;;;14.50;12.50;;;;;12.52;45.09;100059.96;112807;243;39522;-53
2024/03/10 12:13:38;;;;;;;;;19.00;15.00;;;;;12.34;45.56;100062.56;112472;244;39201;-55
2024/03/10 12:16:21;;;;;;;;;19.25;16.25;;;;;12.31;45.76;100060.61;112625;244;39827;-55
2024/03/10 12:18:58;;;;;;;;;27.33;18.33;;;;;12.28;45.76;100059.35;112389;242;162259;-53
2024/03/10 12:21:37;;;;;;;;;22.00;17.00;;;;;12.18;45.93;100059.10;112687;244;39976;-53
2024/03/10 12:24:16;;;;;;;;;18.33;14.00;;;;;12.09;45.99;100057.48;112512;242;161089;-54
2024/03/10 12:26:54;;;;;;;;;20.00;16.00;;;;;12.03;46.19;100057.39;112491;244;41449;-53
2024/03/10 12:29:30;;;;;;;;;24.00;17.00;;;;;11.98;46.50;100053.75;112448;242;162044;-51